Time,TemperatureF,DewpointF,PressureIn,WindDirection,WindDirectionDegrees,WindSpeedMPH,WindSpeedGustMPH,Humidity,HourlyPrecipIn,Conditions,Clouds,dailyrainin,SoftwareType,DateUTC
2013-07-14 00:01:00,75.7,35.3,34.46,SW,214,0.0,0.0,23,0.00,,---,0.00,VWS V14.01,2013-07-14 07:01:00,
2013-07-14 00:06:00,75.9,35.5,34.23,SW,214,0.0,0.0,23,0.00,,---,0.00,VWS V14.01,2013-07-14 07:06:00,
2013-07-14 00:11:00,75.6,35.2,34.23,SW,214,0.0,0.0,23,0.00,,---,0.00,VWS V14.01,2013-07-14 07:11:00,
2013-07-14 00:16:00,75.2,34.9,34.23,SW,214,0.0,0.0,23,0.00,,---,0.00,VWS V14.01,2013-07-14 07:16:00,
2013-07-14 00:21:00,75.0,34.7,33.34,SW,214,0.0,0.0,23,0.00,,---,0.00,VWS V14.01,2013-07-14 07:21:00,
2013-07-14 00:26:00,75.4,35.0,33.34,SW,214,0.0,0.0,23,0.00,,---,0.00,VWS V14.01,2013-07-14 07:26:00,
2013-07-14 00:32:00,74.8,34.6,33.34,SW,214,0.0,0.0,23,0.00,,---,0.00,VWS V14.01,2013-07-14 07:32:00,
2013-07-14 00:37:00,74.3,37.2,32.93,SW,214,0.0,0.0,26,0.00,,---,0.00,VWS V14.01,2013-07-14 07:37:00,
2013-07-14 00:42:00,74.3,34.1,32.93,SW,214,0.0,0.0,23,0.00,,---,0.00,VWS V14.01,2013-07-14 07:42:00,
2013-07-14 00:47:00,74.7,34.4,32.93,SW,214,0.0,0.0,23,0.00,,---,0.00,VWS V14.01,2013-07-14 07:47:00,
2013-07-14 00:52:00,75.0,34.7,34.17,SW,214,0.0,0.0,23,0.00,,---,0.00,VWS V14.01,2013-07-14 07:52:00,
2013-07-14 00:57:00,75.0,34.7,34.17,SW,214,0.0,0.0,23,0.00,,---,0.00,VWS V14.01,2013-07-14 07:57:00,
2013-07-14 01:02:00,75.0,37.8,34.17,SW,214,0.0,0.0,26,0.00,,---,0.00,VWS V14.01,2013-07-14 08:02:00,
2013-07-14 01:07:00,74.5,37.4,34.43,SW,214,0.0,0.0,26,0.00,,---,0.00,VWS V14.01,2013-07-14 08:07:00,
2013-07-14 01:12:00,73.9,36.9,34.43,SW,214,0.0,0.0,26,0.00,,---,0.00,VWS V14.01,2013-07-14 08:12:00,
2013-07-14 01:17:00,73.6,36.6,34.43,SW,214,0.0,0.0,26,0.00,,---,0.00,VWS V14.01,2013-07-14 08:17:00,
2013-07-14 01:22:00,73.2,39.1,34.05,SW,214,0.0,0.0,29,0.00,,---,0.00,VWS V14.01,2013-07-14 08:22:00,
2013-07-14 01:27:00,73.0,38.9,34.05,SW,214,0.0,0.0,29,0.00,,---,0.00,VWS V14.01,2013-07-14 08:27:00,
2013-07-14 01:32:00,73.0,38.9,34.05,SW,214,0.0,0.0,29,0.00,,---,0.00,VWS V14.01,2013-07-14 08:32:00,
2013-07-14 01:37:00,73.2,39.1,33.96,SW,214,0.0,0.0,29,0.00,,---,0.00,VWS V14.01,2013-07-14 08:37:00,
2013-07-14 01:42:00,73.2,36.3,33.96,SSW,213,0.0,0.0,26,0.00,,---,0.00,VWS V14.01,2013-07-14 08:42:00,
2013-07-14 01:47:00,73.4,36.5,33.96,SSW,200,0.0,0.0,26,0.00,,---,0.00,VWS V14.01,2013-07-14 08:47:00,
2013-07-14 01:52:00,73.8,36.8,34.43,SSW,200,0.0,0.0,26,0.00,,---,0.00,VWS V14.01,2013-07-14 08:52:00,
2013-07-14 01:57:00,74.1,37.1,34.43,SSW,204,0.0,0.0,26,0.00,,---,0.00,VWS V14.01,2013-07-14 08:57:00,
2013-07-14 02:02:00,74.1,37.1,34.43,SSW,212,0.0,0.0,26,0.00,,---,0.00,VWS V14.01,2013-07-14 09:02:00,
2013-07-14 02:07:00,73.6,38.5,34.46,SW,220,0.0,0.0,28,0.00,,---,0.00,VWS V14.01,2013-07-14 09:07:00,
2013-07-14 02:12:00,72.7,38.6,34.46,SW,220,0.0,0.0,29,0.00,,---,0.00,VWS V14.01,2013-07-14 09:12:00,
2013-07-14 02:17:00,72.7,40.3,34.46,SW,220,0.0,0.0,31,0.00,,---,0.00,VWS V14.01,2013-07-14 09:17:00,
2013-07-14 02:22:00,72.7,40.3,34.38,SW,220,0.0,0.0,31,0.00,,---,0.00,VWS V14.01,2013-07-14 09:22:00,
2013-07-14 02:27:00,72.7,40.3,34.38,SW,220,0.0,0.0,31,0.00,,---,0.00,VWS V14.01,2013-07-14 09:27:00,
2013-07-14 02:33:00,72.7,42.7,33.87,SW,220,0.0,0.0,34,0.00,,---,0.00,VWS V14.01,2013-07-14 09:33:00,
2013-07-14 02:38:00,72.5,42.6,33.87,SW,220,0.0,0.0,34,0.00,,---,0.00,VWS V14.01,2013-07-14 09:38:00,
2013-07-14 02:43:00,72.5,42.6,33.87,SW,220,0.0,0.0,34,0.00,,---,0.00,VWS V14.01,2013-07-14 09:43:00,
2013-07-14 02:48:00,72.3,42.4,34.02,SW,220,0.0,0.0,34,0.00,,---,0.00,VWS V14.01,2013-07-14 09:48:00,
2013-07-14 02:53:00,72.5,44.1,34.02,SW,220,0.0,0.0,36,0.00,,---,0.00,VWS V14.01,2013-07-14 09:53:00,
2013-07-14 02:58:00,72.5,44.8,34.02,SW,223,0.0,0.0,37,0.00,,---,0.00,VWS V14.01,2013-07-14 09:58:00,
2013-07-14 03:03:00,72.1,44.5,34.02,SW,223,0.0,0.0,37,0.00,,---,0.00,VWS V14.01,2013-07-14 10:03:00,
2013-07-14 03:08:00,72.1,44.5,34.43,SW,223,0.0,0.0,37,0.00,,---,0.00,VWS V14.01,2013-07-14 10:08:00,
2013-07-14 03:13:00,72.1,44.5,34.43,SW,223,0.0,0.0,37,0.00,,---,0.00,VWS V14.01,2013-07-14 10:13:00,
2013-07-14 03:18:00,72.3,44.6,34.17,SW,223,0.0,0.0,37,0.00,,---,0.00,VWS V14.01,2013-07-14 10:18:00,
2013-07-14 03:23:00,72.3,44.6,34.17,SW,223,0.0,0.0,37,0.00,,---,0.00,VWS V14.01,2013-07-14 10:23:00,
2013-07-14 03:28:00,72.1,44.5,34.17,SW,223,0.0,0.0,37,0.00,,---,0.00,VWS V14.01,2013-07-14 10:28:00,
2013-07-14 03:33:00,72.1,44.5,31.95,SW,223,0.0,0.0,37,0.00,,---,0.00,VWS V14.01,2013-07-14 10:33:00,
2013-07-14 03:38:00,72.3,44.6,31.95,SW,223,0.0,0.0,37,0.00,,---,0.00,VWS V14.01,2013-07-14 10:38:00,
2013-07-14 03:43:00,72.3,44.6,31.95,SW,223,0.0,0.0,37,0.00,,---,0.00,VWS V14.01,2013-07-14 10:43:00,
2013-07-14 03:48:00,72.3,44.6,32.07,SW,223,0.0,0.0,37,0.00,,---,0.00,VWS V14.01,2013-07-14 10:48:00,
2013-07-14 03:53:00,72.3,44.6,32.07,SW,223,0.0,0.0,37,0.00,,---,0.00,VWS V14.01,2013-07-14 10:53:00,
2013-07-14 03:58:00,72.9,45.1,32.07,SW,223,0.0,0.0,37,0.00,,---,0.00,VWS V14.01,2013-07-14 10:58:00,
2013-07-14 04:03:00,73.2,45.4,31.81,SW,222,0.0,0.0,37,0.00,,---,0.00,VWS V14.01,2013-07-14 11:03:00,
2013-07-14 04:08:00,73.4,44.8,31.81,SW,222,0.0,0.0,36,0.00,,---,0.00,VWS V14.01,2013-07-14 11:08:00,
2013-07-14 04:13:00,73.4,44.8,31.81,SW,222,0.0,0.0,36,0.00,,---,0.00,VWS V14.01,2013-07-14 11:13:00,
2013-07-14 04:18:00,73.0,45.2,31.90,SW,222,0.0,0.0,37,0.00,,---,0.00,VWS V14.01,2013-07-14 11:18:00,
2013-07-14 04:23:00,72.7,44.9,31.90,SW,222,0.0,0.0,37,0.00,,---,0.00,VWS V14.01,2013-07-14 11:23:00,
2013-07-14 04:28:00,72.5,44.8,31.90,SW,222,0.0,0.0,37,0.00,,---,0.00,VWS V14.01,2013-07-14 11:28:00,
2013-07-14 04:33:00,72.3,44.6,32.60,SW,222,0.0,0.0,37,0.00,,---,0.00,VWS V14.01,2013-07-14 11:33:00,
2013-07-14 04:38:00,72.0,44.3,32.60,SW,222,0.0,0.0,37,0.00,,---,0.00,VWS V14.01,2013-07-14 11:38:00,
2013-07-14 04:43:00,71.8,44.1,32.60,SW,222,0.0,0.0,37,0.00,,---,0.00,VWS V14.01,2013-07-14 11:43:00,
2013-07-14 04:48:00,71.6,44.0,34.26,SW,222,0.0,0.0,37,0.00,,---,0.00,VWS V14.01,2013-07-14 11:48:00,
2013-07-14 04:53:00,71.4,44.5,34.26,SW,222,0.0,0.0,38,0.00,,---,0.00,VWS V14.01,2013-07-14 11:53:00,
2013-07-14 04:58:00,71.6,44.0,34.26,SW,222,0.0,0.0,37,0.00,,---,0.00,VWS V14.01,2013-07-14 11:58:00,
2013-07-14 05:04:00,71.8,44.1,33.02,SW,222,0.0,0.0,37,0.00,,---,0.00,VWS V14.01,2013-07-14 12:04:00,
2013-07-14 05:09:00,72.0,44.3,33.02,SW,222,0.0,0.0,37,0.00,,---,0.00,VWS V14.01,2013-07-14 12:09:00,
2013-07-14 05:14:00,71.8,44.8,33.02,SW,222,0.0,0.0,38,0.00,,---,0.00,VWS V14.01,2013-07-14 12:14:00,
2013-07-14 05:19:00,71.4,44.5,34.32,SW,222,0.0,0.0,38,0.00,,---,0.00,VWS V14.01,2013-07-14 12:19:00,
2013-07-14 05:24:00,71.2,45.0,34.32,SW,222,0.0,0.0,39,0.00,,---,0.00,VWS V14.01,2013-07-14 12:24:00,
2013-07-14 05:29:00,71.1,44.9,34.32,SW,222,0.0,0.0,39,0.00,,---,0.00,VWS V14.01,2013-07-14 12:29:00,
2013-07-14 05:34:00,71.1,45.5,34.43,SW,222,0.0,0.0,40,0.00,,---,0.00,VWS V14.01,2013-07-14 12:34:00,
2013-07-14 05:39:00,71.1,45.5,34.43,SW,222,0.0,0.0,40,0.00,,---,0.00,VWS V14.01,2013-07-14 12:39:00,
2013-07-14 05:44:00,71.4,45.2,34.43,SW,222,0.0,0.0,39,0.00,,---,0.00,VWS V14.01,2013-07-14 12:44:00,
2013-07-14 05:49:00,72.0,45.0,34.35,SW,222,0.0,0.0,38,0.00,,---,0.00,VWS V14.01,2013-07-14 12:49:00,
2013-07-14 05:54:00,72.1,45.2,34.35,SW,222,0.0,0.0,38,0.00,,---,0.00,VWS V14.01,2013-07-14 12:54:00,
2013-07-14 05:59:00,72.3,45.3,34.35,SW,224,0.0,0.0,38,0.00,,---,0.00,VWS V14.01,2013-07-14 12:59:00,
2013-07-14 06:04:00,72.5,46.2,34.20,SW,224,0.0,0.0,39,0.00,,---,0.00,VWS V14.01,2013-07-14 13:04:00,
2013-07-14 06:09:00,72.5,45.5,34.20,SW,224,0.0,0.0,38,0.00,,---,0.00,VWS V14.01,2013-07-14 13:09:00,
2013-07-14 06:14:00,72.7,46.3,34.20,SW,224,0.0,0.0,39,0.00,,---,0.00,VWS V14.01,2013-07-14 13:14:00,
2013-07-14 06:19:00,72.5,46.2,34.41,SW,224,0.0,0.0,39,0.00,,---,0.00,VWS V14.01,2013-07-14 13:19:00,
2013-07-14 06:24:00,72.7,45.6,34.41,SW,224,0.0,0.0,38,0.00,,---,0.00,VWS V14.01,2013-07-14 13:24:00,
2013-07-14 06:29:00,72.7,46.3,34.41,SW,224,0.0,0.0,39,0.00,,---,0.00,VWS V14.01,2013-07-14 13:29:00,
2013-07-14 06:34:00,72.9,46.5,34.41,SW,224,0.0,0.0,39,0.00,,---,0.00,VWS V14.01,2013-07-14 13:34:00,
2013-07-14 06:39:00,73.0,46.6,34.41,SW,224,0.0,0.0,39,0.00,,---,0.00,VWS V14.01,2013-07-14 13:39:00,
2013-07-14 06:44:00,73.0,47.3,34.41,SW,224,0.0,0.0,40,0.00,,---,0.00,VWS V14.01,2013-07-14 13:44:00,
2013-07-14 06:49:00,73.4,47.0,34.41,SW,235,0.0,0.0,39,0.00,,---,0.00,VWS V14.01,2013-07-14 13:49:00,
2013-07-14 06:54:00,73.9,46.8,34.41,SW,235,0.0,0.0,38,0.00,,---,0.00,VWS V14.01,2013-07-14 13:54:00,
2013-07-14 06:59:00,74.5,47.2,34.41,SW,235,0.0,0.0,38,0.00,,---,0.00,VWS V14.01,2013-07-14 13:59:00,
2013-07-14 07:04:00,75.0,47.0,32.28,SW,235,0.0,0.0,37,0.00,,---,0.00,VWS V14.01,2013-07-14 14:04:00,
2013-07-14 07:09:00,75.4,47.3,32.28,SW,235,0.0,0.0,37,0.00,,---,0.00,VWS V14.01,2013-07-14 14:09:00,
2013-07-14 07:14:00,75.6,47.5,32.28,WSW,241,0.0,0.0,37,0.00,,---,0.00,VWS V14.01,2013-07-14 14:14:00,
2013-07-14 07:20:00,75.9,47.8,32.93,WSW,255,0.0,0.0,37,0.00,,---,0.00,VWS V14.01,2013-07-14 14:20:00,
2013-07-14 07:25:00,75.9,47.1,32.93,WSW,255,0.0,0.0,36,0.00,,---,0.00,VWS V14.01,2013-07-14 14:25:00,
2013-07-14 07:30:00,75.9,47.8,32.93,West,265,0.0,0.0,37,0.00,,---,0.00,VWS V14.01,2013-07-14 14:30:00,
2013-07-14 07:35:00,75.9,47.8,33.90,West,266,0.0,0.0,37,0.00,,---,0.00,VWS V14.01,2013-07-14 14:35:00,
2013-07-14 07:40:00,75.9,47.8,33.90,West,276,0.0,0.0,37,0.00,,---,0.00,VWS V14.01,2013-07-14 14:40:00,
2013-07-14 07:45:00,75.9,47.8,33.90,WNW,302,0.0,0.0,37,0.00,,---,0.00,VWS V14.01,2013-07-14 14:45:00,
2013-07-14 07:50:00,75.9,47.8,34.38,NW,316,0.0,0.0,37,0.00,,---,0.00,VWS V14.01,2013-07-14 14:50:00,
2013-07-14 07:55:00,76.1,48.0,34.38,NW,318,0.0,0.0,37,0.00,,---,0.00,VWS V14.01,2013-07-14 14:55:00,
2013-07-14 08:00:00,76.1,48.0,34.38,NW,318,0.0,0.0,37,0.00,,---,0.00,VWS V14.01,2013-07-14 15:00:00,
2013-07-14 08:05:00,76.3,48.1,34.29,NW,316,0.0,0.0,37,0.00,,---,0.00,VWS V14.01,2013-07-14 15:05:00,
2013-07-14 08:10:00,76.5,47.5,34.29,NW,315,0.0,0.0,36,0.00,,---,0.00,VWS V14.01,2013-07-14 15:10:00,
2013-07-14 08:15:00,76.6,47.7,34.29,NW,312,0.0,0.0,36,0.00,,---,0.00,VWS V14.01,2013-07-14 15:15:00,
2013-07-14 08:20:00,76.8,47.9,34.41,NW,309,0.0,0.0,36,0.00,,---,0.00,VWS V14.01,2013-07-14 15:20:00,
2013-07-14 08:25:00,77.0,47.3,34.41,NW,309,0.0,0.0,35,0.00,,---,0.00,VWS V14.01,2013-07-14 15:25:00,
2013-07-14 08:30:00,77.2,47.4,34.41,NW,309,0.0,0.0,35,0.00,,---,0.00,VWS V14.01,2013-07-14 15:30:00,
2013-07-14 08:35:00,77.4,46.0,34.43,NW,309,0.0,0.0,33,0.00,,---,0.00,VWS V14.01,2013-07-14 15:35:00,
2013-07-14 08:40:00,77.5,46.2,34.43,NW,306,0.0,0.0,33,0.00,,---,0.00,VWS V14.01,2013-07-14 15:40:00,
2013-07-14 08:45:00,77.9,46.5,34.43,NW,306,0.0,0.0,33,0.00,,---,0.00,VWS V14.01,2013-07-14 15:45:00,
2013-07-14 08:50:00,78.3,44.3,34.46,WNW,295,0.0,0.0,30,0.00,,---,0.00,VWS V14.01,2013-07-14 15:50:00,
2013-07-14 08:55:00,78.6,42.8,34.46,WNW,294,0.0,0.0,28,0.00,,---,0.00,VWS V14.01,2013-07-14 15:55:00,
2013-07-14 09:00:00,79.2,42.3,34.46,WNW,291,0.0,0.0,27,0.00,,---,0.00,VWS V14.01,2013-07-14 16:00:00,
2013-07-14 09:05:00,79.7,40.8,32.28,WNW,287,0.0,0.0,25,0.00,,---,0.00,VWS V14.01,2013-07-14 16:05:00,
2013-07-14 09:10:00,80.4,41.4,32.28,WNW,288,0.0,0.0,25,0.00,,---,0.00,VWS V14.01,2013-07-14 16:10:00,
2013-07-14 09:15:00,82.0,39.5,32.28,NNW,337,0.0,0.0,22,0.00,,---,0.00,VWS V14.01,2013-07-14 16:15:00,
2013-07-14 09:20:00,82.8,38.9,32.66,NNW,342,0.0,0.0,21,0.00,,---,0.00,VWS V14.01,2013-07-14 16:20:00,
2013-07-14 09:25:00,83.3,39.3,32.66,NW,307,3.1,4.0,21,0.00,,---,0.00,VWS V14.01,2013-07-14 16:25:00,
2013-07-14 09:31:00,83.7,39.6,32.66,NNW,334,4.0,6.3,21,0.00,,---,0.00,VWS V14.01,2013-07-14 16:31:00,
2013-07-14 09:36:00,83.7,37.1,33.43,North,350,4.0,7.6,19,0.00,,---,0.00,VWS V14.01,2013-07-14 16:36:00,
2013-07-14 09:41:00,83.5,36.9,33.43,North,353,0.0,0.0,19,0.00,,---,0.00,VWS V14.01,2013-07-14 16:41:00,
2013-07-14 09:46:00,83.7,37.1,33.43,WNW,301,0.0,0.0,19,0.00,,---,0.00,VWS V14.01,2013-07-14 16:46:00,
2013-07-14 09:51:00,83.7,37.1,34.29,NNW,342,0.0,0.0,19,0.00,,---,0.00,VWS V14.01,2013-07-14 16:51:00,
2013-07-14 09:56:00,83.7,37.1,34.29,NNW,342,0.0,0.0,19,0.00,,---,0.00,VWS V14.01,2013-07-14 16:56:00,
2013-07-14 10:01:00,83.7,37.1,34.29,NNW,339,0.0,0.0,19,0.00,,---,0.00,VWS V14.01,2013-07-14 17:01:00,
2013-07-14 10:06:00,83.7,37.1,34.46,NNW,339,0.0,0.0,19,0.00,,---,0.00,VWS V14.01,2013-07-14 17:06:00,
2013-07-14 10:11:00,83.8,37.2,34.46,NNW,329,0.0,0.0,19,0.00,,---,0.00,VWS V14.01,2013-07-14 17:11:00,
2013-07-14 10:16:00,84.0,37.4,34.46,NW,315,0.0,0.0,19,0.00,,---,0.00,VWS V14.01,2013-07-14 17:16:00,
2013-07-14 10:21:00,84.0,37.4,34.46,WNW,287,0.0,0.0,19,0.00,,---,0.00,VWS V14.01,2013-07-14 17:21:00,
2013-07-14 10:26:00,84.2,36.2,34.46,WNW,286,0.0,0.0,18,0.00,,---,0.00,VWS V14.01,2013-07-14 17:26:00,
2013-07-14 10:31:00,84.4,36.3,34.46,WNW,297,0.0,0.0,18,0.00,,---,0.00,VWS V14.01,2013-07-14 17:31:00,
2013-07-14 10:36:00,84.9,36.7,34.29,NW,306,0.0,0.0,18,0.00,,---,0.00,VWS V14.01,2013-07-14 17:36:00,
2013-07-14 10:42:00,85.6,37.3,34.29,NNW,339,0.0,0.0,18,0.00,,---,0.00,VWS V14.01,2013-07-14 17:42:00,
2013-07-14 10:47:00,86.0,37.6,34.29,North,353,0.0,0.0,18,0.00,,---,0.00,VWS V14.01,2013-07-14 17:47:00,
2013-07-14 10:52:00,86.4,37.9,34.46,NW,326,0.0,0.0,18,0.00,,---,0.00,VWS V14.01,2013-07-14 17:52:00,
2013-07-14 10:57:00,86.4,37.9,34.46,NNW,333,0.0,0.0,18,0.00,,---,0.00,VWS V14.01,2013-07-14 17:57:00,
2013-07-14 11:02:00,86.4,37.9,34.46,North,353,0.0,0.0,18,0.00,,---,0.00,VWS V14.01,2013-07-14 18:02:00,
2013-07-14 11:07:00,86.5,38.0,33.76,NNW,338,0.0,0.0,18,0.00,,---,0.00,VWS V14.01,2013-07-14 18:07:00,
2013-07-14 11:12:00,86.9,38.3,33.76,NW,320,0.0,0.0,18,0.00,,---,0.00,VWS V14.01,2013-07-14 18:12:00,
2013-07-14 11:17:00,87.3,38.6,33.76,NW,315,0.0,0.0,18,0.00,,---,0.00,VWS V14.01,2013-07-14 18:17:00,
2013-07-14 11:22:00,87.8,37.6,34.38,NNW,337,0.0,0.0,17,0.00,,---,0.00,VWS V14.01,2013-07-14 18:22:00,
2013-07-14 11:27:00,88.2,37.9,34.38,NNW,341,0.0,0.0,17,0.00,,---,0.00,VWS V14.01,2013-07-14 18:27:00,
2013-07-14 11:32:00,88.3,38.0,34.38,East,97,0.0,0.0,17,0.00,,---,0.00,VWS V14.01,2013-07-14 18:32:00,
2013-07-14 11:37:00,88.5,38.2,34.14,North,0,0.0,0.0,17,0.00,,---,0.00,VWS V14.01,2013-07-14 18:37:00,
2013-07-14 11:42:00,89.4,38.9,34.14,North,357,0.0,0.0,17,0.00,,---,0.00,VWS V14.01,2013-07-14 18:42:00,
2013-07-14 11:47:00,90.1,39.5,34.14,North,357,0.0,0.0,17,0.00,,---,0.00,VWS V14.01,2013-07-14 18:47:00,
2013-07-14 11:52:00,90.7,39.9,34.29,North,357,0.0,0.0,17,0.00,,---,0.00,VWS V14.01,2013-07-14 18:52:00,
2013-07-14 11:57:00,91.0,40.2,34.29,NNE,19,0.0,3.6,17,0.00,,---,0.00,VWS V14.01,2013-07-14 18:57:00,
2013-07-14 12:02:00,91.4,40.5,34.43,North,8,2.7,4.9,17,0.00,,---,0.00,VWS V14.01,2013-07-14 19:02:00,
2013-07-14 12:07:00,91.9,40.9,34.43,NNE,12,4.9,8.1,17,0.00,,---,0.00,VWS V14.01,2013-07-14 19:07:00,
2013-07-14 12:12:00,92.7,41.5,34.43,NNE,16,0.0,4.0,17,0.00,,---,0.00,VWS V14.01,2013-07-14 19:12:00,
2013-07-14 12:17:00,93.2,42.0,34.43,NNE,17,0.0,0.0,17,0.00,,---,0.04,VWS V14.01,2013-07-14 19:17:00,
2013-07-14 12:22:00,93.9,42.5,33.17,NNE,19,0.0,3.6,17,0.00,,---,0.00,VWS V14.01,2013-07-14 19:22:00,
2013-07-14 12:28:00,94.3,42.8,33.17,North,9,0.0,0.0,17,0.00,,---,0.00,VWS V14.01,2013-07-14 19:28:00,
2013-07-14 12:33:00,94.6,43.1,33.17,North,357,4.5,4.5,17,0.00,,---,0.00,VWS V14.01,2013-07-14 19:33:00,
2013-07-14 12:38:00,95.0,43.4,34.32,North,357,0.0,3.1,17,0.00,,---,0.00,VWS V14.01,2013-07-14 19:38:00,
2013-07-14 12:43:00,95.2,43.5,34.32,North,357,3.1,3.6,17,0.00,,---,0.00,VWS V14.01,2013-07-14 19:43:00,
2013-07-14 12:48:00,95.2,43.5,34.46,NNE,16,5.8,5.8,17,0.00,,---,0.00,VWS V14.01,2013-07-14 19:48:00,
2013-07-14 12:53:00,95.5,43.8,34.46,North,357,3.1,5.8,17,0.00,,---,0.00,VWS V14.01,2013-07-14 19:53:00,
2013-07-14 12:58:00,95.7,44.0,34.46,North,357,5.4,5.4,17,0.00,,---,0.00,VWS V14.01,2013-07-14 19:58:00,
2013-07-14 13:03:00,96.1,44.3,34.23,NNE,16,5.8,6.3,17,0.00,,---,0.00,VWS V14.01,2013-07-14 20:03:00,
2013-07-14 13:08:00,96.4,44.6,34.23,North,357,4.0,4.0,17,0.00,,---,0.00,VWS V14.01,2013-07-14 20:08:00,
2013-07-14 13:13:00,97.0,45.0,34.23,North,357,0.0,0.0,17,0.00,,---,0.00,VWS V14.01,2013-07-14 20:13:00,
2013-07-14 13:18:00,97.3,45.3,31.78,North,10,4.0,5.4,17,0.00,,---,0.00,VWS V14.01,2013-07-14 20:18:00,
2013-07-14 13:23:00,97.3,45.3,31.78,NNE,12,4.0,6.3,17,0.00,,---,0.00,VWS V14.01,2013-07-14 20:23:00,
2013-07-14 13:28:00,97.7,45.6,31.78,North,10,0.0,0.0,17,0.00,,---,0.00,VWS V14.01,2013-07-14 20:28:00,
2013-07-14 13:33:00,97.9,45.7,34.17,North,2,6.3,6.3,17,0.00,,---,0.00,VWS V14.01,2013-07-14 20:33:00,
2013-07-14 13:38:00,97.5,45.4,34.17,North,9,11.9,11.9,17,0.00,,---,0.00,VWS V14.01,2013-07-14 20:38:00,
2013-07-14 13:44:00,98.1,45.9,34.17,North,5,8.1,8.1,17,0.00,,---,0.00,VWS V14.01,2013-07-14 20:44:00,
2013-07-14 13:49:00,97.2,45.1,34.29,North,2,6.3,6.3,17,0.00,,---,0.00,VWS V14.01,2013-07-14 20:49:00,
2013-07-14 13:54:00,97.3,45.3,34.29,North,5,8.7,8.7,17,0.00,,---,0.00,VWS V14.01,2013-07-14 20:54:00,
2013-07-14 13:59:00,97.2,45.1,34.29,North,7,0.0,0.0,17,0.00,,---,0.00,VWS V14.01,2013-07-14 20:59:00,
2013-07-14 14:04:00,97.9,45.7,34.29,North,7,0.0,0.0,17,0.00,,---,0.00,VWS V14.01,2013-07-14 21:04:00,
2013-07-14 14:09:00,98.2,46.0,34.29,North,4,0.0,0.0,17,0.00,,---,0.00,VWS V14.01,2013-07-14 21:09:00,
2013-07-14 14:14:00,98.6,46.3,34.29,North,5,0.0,0.0,17,0.00,,---,0.00,VWS V14.01,2013-07-14 21:14:00,
2013-07-14 14:19:00,98.1,45.9,33.37,North,8,0.0,0.0,17,0.00,,---,0.00,VWS V14.01,2013-07-14 21:19:00,
2013-07-14 14:24:00,99.0,46.6,33.37,North,5,0.0,0.0,17,0.00,,---,0.00,VWS V14.01,2013-07-14 21:24:00,
2013-07-14 14:29:00,99.3,46.9,33.37,North,5,0.0,0.0,17,0.00,,---,0.00,VWS V14.01,2013-07-14 21:29:00,
2013-07-14 14:34:00,99.1,46.7,34.20,North,2,0.0,0.0,17,0.00,,---,0.00,VWS V14.01,2013-07-14 21:34:00,
2013-07-14 14:39:00,99.1,46.7,34.20,North,357,0.0,0.0,17,0.00,,---,0.00,VWS V14.01,2013-07-14 21:39:00,
2013-07-14 14:44:00,99.5,47.0,34.20,North,5,0.0,0.0,17,0.00,,---,0.00,VWS V14.01,2013-07-14 21:44:00,
2013-07-14 14:49:00,99.9,47.3,34.46,North,8,0.0,0.0,17,0.00,,---,0.00,VWS V14.01,2013-07-14 21:49:00,
2013-07-14 14:54:00,99.0,46.6,34.46,North,357,0.0,0.0,17,0.00,,---,0.00,VWS V14.01,2013-07-14 21:54:00,
2013-07-14 14:59:00,98.2,46.0,34.46,North,357,0.0,0.0,17,0.00,,---,0.00,VWS V14.01,2013-07-14 21:59:00,
2013-07-14 15:05:00,97.7,45.6,34.38,NNE,13,0.0,0.0,17,0.00,,---,0.00,VWS V14.01,2013-07-14 22:05:00,
2013-07-14 15:10:00,98.1,45.9,34.38,NNE,13,0.0,0.0,17,0.00,,---,0.00,VWS V14.01,2013-07-14 22:10:00,
2013-07-14 15:15:00,97.7,45.6,34.38,North,2,0.0,0.0,17,0.00,,---,0.00,VWS V14.01,2013-07-14 22:15:00,
2013-07-14 15:20:00,96.6,44.7,34.23,North,2,0.0,0.0,17,0.00,,---,0.00,VWS V14.01,2013-07-14 22:20:00,
2013-07-14 15:25:00,96.1,44.3,34.23,North,2,0.0,0.0,17,0.00,,---,0.00,VWS V14.01,2013-07-14 22:25:00,
2013-07-14 15:30:00,94.8,43.3,34.23,North,3,0.0,0.0,17,0.00,,---,0.00,VWS V14.01,2013-07-14 22:30:00,
2013-07-14 15:35:00,93.9,42.5,34.32,South,188,0.0,0.0,17,0.00,,---,0.00,VWS V14.01,2013-07-14 22:35:00,
2013-07-14 15:40:00,92.8,41.7,34.32,South,173,10.1,12.8,17,0.00,,---,0.00,VWS V14.01,2013-07-14 22:40:00,
2013-07-14 15:45:00,92.8,41.7,34.32,SW,228,5.4,6.3,17,0.00,,---,0.00,VWS V14.01,2013-07-14 22:45:00,
2013-07-14 15:50:00,92.7,41.5,34.38,SSW,201,5.4,6.3,17,0.00,,---,0.00,VWS V14.01,2013-07-14 22:50:00,
2013-07-14 15:55:00,92.8,41.7,34.38,North,5,0.0,0.0,17,0.00,,---,0.00,VWS V14.01,2013-07-14 22:55:00,
2013-07-14 16:00:00,93.4,42.1,34.38,SW,224,0.0,0.0,17,0.00,,---,0.00,VWS V14.01,2013-07-14 23:00:00,
2013-07-14 16:05:00,93.6,42.2,32.28,WSW,250,0.0,0.0,17,0.00,,---,0.00,VWS V14.01,2013-07-14 23:05:00,
2013-07-14 16:10:00,93.2,42.0,32.28,SSW,209,0.0,0.0,17,0.00,,---,0.00,VWS V14.01,2013-07-14 23:10:00,
2013-07-14 16:15:00,93.0,41.8,32.28,SW,223,0.0,0.0,17,0.00,,---,0.00,VWS V14.01,2013-07-14 23:15:00,
2013-07-14 16:21:00,92.8,41.7,31.90,SW,233,0.0,0.0,17,0.00,,---,0.00,VWS V14.01,2013-07-14 23:21:00,
2013-07-14 16:26:00,92.8,41.7,31.90,WSW,242,0.0,0.0,17,0.00,,---,0.00,VWS V14.01,2013-07-14 23:26:00,
2013-07-14 16:31:00,92.7,41.5,31.90,West,273,0.0,0.0,17,0.00,,---,0.00,VWS V14.01,2013-07-14 23:31:00,
2013-07-14 16:36:00,92.5,41.4,32.10,WSW,247,0.0,0.0,17,0.00,,---,0.00,VWS V14.01,2013-07-14 23:36:00,
2013-07-14 16:41:00,91.9,40.9,32.10,WSW,245,0.0,0.0,17,0.00,,---,0.00,VWS V14.01,2013-07-14 23:41:00,
2013-07-14 16:46:00,91.8,40.8,32.10,WSW,249,0.0,0.0,17,0.00,,---,0.00,VWS V14.01,2013-07-14 23:46:00,
2013-07-14 16:51:00,91.9,40.9,33.96,SSW,212,0.0,0.0,17,0.00,,---,0.00,VWS V14.01,2013-07-14 23:51:00,
2013-07-14 16:56:00,92.3,41.2,33.96,West,262,0.0,0.0,17,0.00,,---,0.00,VWS V14.01,2013-07-14 23:56:00,
2013-07-14 17:01:00,92.3,41.2,33.96,WSW,247,0.0,0.0,17,0.00,,---,0.00,VWS V14.01,2013-07-15 00:01:00,
2013-07-14 17:06:00,92.1,41.1,34.35,SW,228,0.0,0.0,17,0.00,,---,0.00,VWS V14.01,2013-07-15 00:06:00,
2013-07-14 17:11:00,91.9,40.9,34.35,SSW,207,0.0,0.0,17,0.00,,---,0.00,VWS V14.01,2013-07-15 00:11:00,
2013-07-14 17:16:00,91.8,40.8,34.35,WSW,256,0.0,0.0,17,0.00,,---,0.00,VWS V14.01,2013-07-15 00:16:00,
2013-07-14 17:21:00,91.6,40.7,34.41,West,260,0.0,0.0,17,0.00,,---,0.00,VWS V14.01,2013-07-15 00:21:00,
2013-07-14 17:26:00,91.6,40.7,34.41,West,260,0.0,0.0,17,0.00,,---,0.00,VWS V14.01,2013-07-15 00:26:00,
2013-07-14 17:31:00,91.8,40.8,34.41,West,263,0.0,0.0,17,0.00,,---,0.00,VWS V14.01,2013-07-15 00:31:00,
2013-07-14 17:36:00,91.8,40.8,34.32,West,268,0.0,0.0,17,0.00,,---,0.00,VWS V14.01,2013-07-15 00:36:00,
2013-07-14 17:41:00,91.9,40.9,34.32,West,259,0.0,0.0,17,0.00,,---,0.00,VWS V14.01,2013-07-15 00:41:00,
2013-07-14 17:46:00,91.9,40.9,34.32,West,263,0.0,0.0,17,0.00,,---,0.00,VWS V14.01,2013-07-15 00:46:00,
2013-07-14 17:51:00,92.1,41.1,34.46,WSW,256,0.0,0.0,17,0.00,,---,0.00,VWS V14.01,2013-07-15 00:51:00,
2013-07-14 17:56:00,92.1,41.1,34.46,West,270,0.0,0.0,17,0.00,,---,0.00,VWS V14.01,2013-07-15 00:56:00,
2013-07-14 18:01:00,92.3,41.2,34.46,West,267,0.0,0.0,17,0.00,,---,0.00,VWS V14.01,2013-07-15 01:01:00,
2013-07-14 18:06:00,92.3,41.2,34.29,West,262,0.0,0.0,17,0.00,,---,0.00,VWS V14.01,2013-07-15 01:06:00,
2013-07-14 18:11:00,92.1,41.1,34.29,WSW,257,0.0,0.0,17,0.00,,---,0.00,VWS V14.01,2013-07-15 01:11:00,
2013-07-14 18:17:00,92.3,41.2,34.29,WSW,238,0.0,0.0,17,0.00,,---,0.00,VWS V14.01,2013-07-15 01:17:00,
2013-07-14 18:22:00,92.3,41.2,34.05,WSW,238,0.0,0.0,17,0.00,,---,0.00,VWS V14.01,2013-07-15 01:22:00,
2013-07-14 18:27:00,91.9,40.9,34.05,West,261,0.0,0.0,17,0.00,,---,0.00,VWS V14.01,2013-07-15 01:27:00,
2013-07-14 18:32:00,91.8,40.8,34.05,West,267,0.0,0.0,17,0.00,,---,0.00,VWS V14.01,2013-07-15 01:32:00,
2013-07-14 18:37:00,91.6,40.7,34.46,West,263,0.0,0.0,17,0.00,,---,0.00,VWS V14.01,2013-07-15 01:37:00,
2013-07-14 18:42:00,91.4,40.5,34.46,WNW,295,0.0,0.0,17,0.00,,---,0.00,VWS V14.01,2013-07-15 01:42:00,
2013-07-14 18:47:00,91.4,40.5,34.46,WSW,248,0.0,0.0,17,0.00,,---,0.00,VWS V14.01,2013-07-15 01:47:00,
2013-07-14 18:52:00,91.2,40.4,34.46,WSW,246,0.0,0.0,17,0.00,,---,0.00,VWS V14.01,2013-07-15 01:52:00,
2013-07-14 18:57:00,91.2,40.4,34.46,West,269,0.0,0.0,17,0.00,,---,0.00,VWS V14.01,2013-07-15 01:57:00,
2013-07-14 19:02:00,91.2,40.4,34.46,SW,232,0.0,0.0,17,0.00,,---,0.00,VWS V14.01,2013-07-15 02:02:00,
2013-07-14 19:07:00,91.0,40.2,34.43,West,270,0.0,0.0,17,0.00,,---,0.00,VWS V14.01,2013-07-15 02:07:00,
2013-07-14 19:12:00,90.7,39.9,34.43,WSW,247,0.0,0.0,17,0.00,,---,0.00,VWS V14.01,2013-07-15 02:12:00,
2013-07-14 19:17:00,90.3,39.6,34.43,NW,308,0.0,0.0,17,0.00,,---,0.00,VWS V14.01,2013-07-15 02:17:00,
2013-07-14 19:22:00,90.0,39.3,34.46,WNW,286,0.0,0.0,17,0.00,,---,0.00,VWS V14.01,2013-07-15 02:22:00,
2013-07-14 19:27:00,89.8,39.2,34.46,West,259,0.0,0.0,17,0.00,,---,0.00,VWS V14.01,2013-07-15 02:27:00,
2013-07-14 19:32:00,89.4,38.9,34.46,West,270,0.0,0.0,17,0.00,,---,0.00,VWS V14.01,2013-07-15 02:32:00,
2013-07-14 19:37:00,89.2,38.8,34.46,WSW,257,6.3,7.6,17,0.00,,---,0.00,VWS V14.01,2013-07-15 02:37:00,
2013-07-14 19:42:00,89.2,38.8,34.46,West,264,6.7,8.7,17,0.00,,---,0.00,VWS V14.01,2013-07-15 02:42:00,
2013-07-14 19:47:00,88.9,38.5,34.46,WSW,256,6.3,9.6,17,0.00,,---,0.00,VWS V14.01,2013-07-15 02:47:00,
2013-07-14 19:52:00,88.7,38.3,34.46,West,260,4.9,5.8,17,0.00,,---,0.00,VWS V14.01,2013-07-15 02:52:00,
2013-07-14 19:57:00,88.3,38.0,34.46,West,278,0.0,0.0,17,0.00,,---,0.00,VWS V14.01,2013-07-15 02:57:00,
2013-07-14 20:02:00,88.2,37.9,34.35,West,270,0.0,0.0,17,0.00,,---,0.00,VWS V14.01,2013-07-15 03:02:00,
2013-07-14 20:07:00,88.0,37.8,34.35,WNW,284,0.0,0.0,17,0.00,,---,0.00,VWS V14.01,2013-07-15 03:07:00,
2013-07-14 20:12:00,87.6,37.5,34.35,WNW,296,0.0,0.0,17,0.00,,---,0.00,VWS V14.01,2013-07-15 03:12:00,
2013-07-14 20:18:00,87.3,37.2,34.35,WSW,258,0.0,0.0,17,0.00,,---,0.00,VWS V14.01,2013-07-15 03:18:00,
2013-07-14 20:23:00,87.1,37.0,32.13,West,273,0.0,0.0,17,0.00,,---,0.00,VWS V14.01,2013-07-15 03:23:00,
2013-07-14 20:28:00,86.9,36.9,32.13,West,272,0.0,0.0,17,0.00,,---,0.00,VWS V14.01,2013-07-15 03:28:00,
2013-07-14 20:33:00,86.7,36.7,32.13,West,275,0.0,0.0,17,0.00,,---,0.00,VWS V14.01,2013-07-15 03:33:00,
2013-07-14 20:38:00,86.9,36.9,34.38,West,275,0.0,0.0,17,0.00,,---,0.00,VWS V14.01,2013-07-15 03:38:00,
2013-07-14 20:43:00,86.7,36.7,34.38,WSW,244,0.0,0.0,17,0.00,,---,0.00,VWS V14.01,2013-07-15 03:43:00,
2013-07-14 20:48:00,86.4,36.5,34.46,West,270,0.0,0.0,17,0.00,,---,0.00,VWS V14.01,2013-07-15 03:48:00,
2013-07-14 20:53:00,86.2,36.3,34.46,WNW,293,0.0,0.0,17,0.00,,---,0.00,VWS V14.01,2013-07-15 03:53:00,
2013-07-14 20:58:00,86.0,36.2,34.46,West,269,0.0,0.0,17,0.00,,---,0.00,VWS V14.01,2013-07-15 03:58:00,
2013-07-14 21:01:00,86.0,36.2,34.46,West,277,0.0,0.0,17,0.00,,---,0.00,VWS V14.01,2013-07-15 04:01:00,
2013-07-14 21:02:00,86.0,36.2,34.46,West,265,0.0,0.0,17,0.00,,---,0.00,VWS V14.01,2013-07-15 04:02:00,
2013-07-14 21:03:00,86.0,36.2,33.64,West,273,0.0,0.0,17,0.00,,---,0.00,VWS V14.01,2013-07-15 04:03:00,
2013-07-14 21:08:00,85.8,36.0,33.64,NW,309,0.0,0.0,17,0.00,,---,0.00,VWS V14.01,2013-07-15 04:08:00,
2013-07-14 21:13:00,85.6,35.9,33.64,WNW,297,0.0,0.0,17,0.00,,---,0.00,VWS V14.01,2013-07-15 04:13:00,
2013-07-14 21:18:00,85.5,35.7,32.78,WNW,297,0.0,0.0,17,0.00,,---,0.00,VWS V14.01,2013-07-15 04:18:00,
2013-07-14 21:23:00,85.3,35.6,32.78,NNW,334,0.0,0.0,17,0.00,,---,0.00,VWS V14.01,2013-07-15 04:23:00,
2013-07-14 21:28:00,84.7,35.1,32.78,NNW,341,0.0,0.0,17,0.00,,---,0.00,VWS V14.01,2013-07-15 04:28:00,
2013-07-14 21:33:00,84.2,34.7,34.32,NNW,341,0.0,0.0,17,0.00,,---,0.00,VWS V14.01,2013-07-15 04:33:00,
2013-07-14 21:38:00,83.7,34.3,34.32,NNW,332,0.0,0.0,17,0.00,,---,0.00,VWS V14.01,2013-07-15 04:38:00,
2013-07-14 21:43:00,83.3,34.0,34.32,NNW,331,0.0,0.0,17,0.00,,---,0.00,VWS V14.01,2013-07-15 04:43:00,
2013-07-14 21:48:00,83.1,33.8,34.46,NNW,331,0.0,0.0,17,0.00,,---,0.00,VWS V14.01,2013-07-15 04:48:00,
2013-07-14 21:54:00,82.8,33.5,34.46,NNW,331,0.0,0.0,17,0.00,,---,0.00,VWS V14.01,2013-07-15 04:54:00,
2013-07-14 21:59:00,82.4,33.2,34.46,NNW,331,0.0,0.0,17,0.00,,---,0.00,VWS V14.01,2013-07-15 04:59:00,
2013-07-14 22:04:00,82.2,33.1,34.29,NNW,331,0.0,0.0,17,0.00,,---,0.00,VWS V14.01,2013-07-15 05:04:00,
2013-07-14 22:09:00,82.0,33.0,34.29,SW,235,0.0,0.0,17,0.00,,---,0.00,VWS V14.01,2013-07-15 05:09:00,
2013-07-14 22:14:00,82.0,33.0,34.29,SW,235,0.0,0.0,17,0.00,,---,0.00,VWS V14.01,2013-07-15 05:14:00,
2013-07-14 22:19:00,81.9,32.8,34.11,SW,235,0.0,0.0,17,0.00,,---,0.00,VWS V14.01,2013-07-15 05:19:00,
2013-07-14 22:24:00,81.5,32.5,34.11,SW,235,0.0,0.0,17,0.00,,---,0.00,VWS V14.01,2013-07-15 05:24:00,
2013-07-14 22:29:00,81.0,32.1,34.11,SW,235,0.0,0.0,17,0.00,,---,0.00,VWS V14.01,2013-07-15 05:29:00,
2013-07-14 22:34:00,80.6,31.8,34.26,SW,235,0.0,0.0,17,0.00,,---,0.00,VWS V14.01,2013-07-15 05:34:00,
2013-07-14 22:39:00,80.2,31.5,34.26,SW,235,0.0,0.0,17,0.00,,---,0.00,VWS V14.01,2013-07-15 05:39:00,
2013-07-14 22:44:00,80.1,31.4,34.26,North,357,0.0,0.0,17,0.00,,---,0.00,VWS V14.01,2013-07-15 05:44:00,
2013-07-14 22:49:00,80.1,31.4,34.17,North,357,0.0,0.0,17,0.00,,---,0.00,VWS V14.01,2013-07-15 05:49:00,
2013-07-14 22:54:00,80.1,31.4,34.17,North,357,0.0,0.0,17,0.00,,---,0.00,VWS V14.01,2013-07-15 05:54:00,
2013-07-14 22:59:00,80.1,31.4,34.17,NNE,16,0.0,0.0,17,0.00,,---,0.00,VWS V14.01,2013-07-15 05:59:00,
2013-07-14 23:04:00,80.2,31.5,34.46,NW,306,0.0,0.0,17,0.00,,---,0.00,VWS V14.01,2013-07-15 06:04:00,
2013-07-14 23:09:00,80.6,31.8,34.46,NW,305,0.0,0.0,17,0.00,,---,0.00,VWS V14.01,2013-07-15 06:09:00,
2013-07-14 23:14:00,80.4,31.7,34.46,NW,305,0.0,0.0,17,0.00,,---,0.00,VWS V14.01,2013-07-15 06:14:00,
2013-07-14 23:19:00,79.9,31.2,34.43,SW,224,5.8,5.8,17,0.00,,---,0.00,VWS V14.01,2013-07-15 06:19:00,
2013-07-14 23:24:00,79.5,30.9,34.43,SW,218,0.0,0.0,17,0.00,,---,0.00,VWS V14.01,2013-07-15 06:24:00,
2013-07-14 23:29:00,79.5,30.9,34.43,SW,218,0.0,0.0,17,0.00,,---,0.00,VWS V14.01,2013-07-15 06:29:00,
2013-07-14 23:34:00,79.2,30.6,34.26,SW,218,0.0,0.0,17,0.00,,---,0.00,VWS V14.01,2013-07-15 06:34:00,
2013-07-14 23:39:00,79.0,30.5,34.26,West,263,0.0,0.0,17,0.00,,---,0.00,VWS V14.01,2013-07-15 06:39:00,
2013-07-14 23:44:00,79.0,30.5,34.26,West,269,0.0,0.0,17,0.00,,---,0.00,VWS V14.01,2013-07-15 06:44:00,
2013-07-14 23:49:00,79.2,30.6,34.41,WSW,250,0.0,0.0,17,0.00,,---,0.00,VWS V14.01,2013-07-15 06:49:00,
2013-07-14 23:54:00,79.3,30.8,34.41,WSW,239,0.0,0.0,17,0.00,,---,0.00,VWS V14.01,2013-07-15 06:54:00,
2013-07-14 23:59:00,79.7,31.1,34.41,WNW,283,0.0,3.6,17,0.00,,---,0.00,VWS V14.01,2013-07-15 06:59:00,